Big Moose, New York
Current Conditions -  °F | °C
As of 3:58 PM on Saturday 25 Oct 2014 (Local Time) from KGTB Reporting Station
Light Rain Light Rain  
Wind Chill: 54°   Ceiling: 3500
Heat Index: 54°   Visibility: 7mi
Dew Point: 49°   Wind: 8mph
Humidity: 83%   Direction: 200°SSW
Pressure: 29.54"   Gusts: NA
Location:  43.8364°N, 74.9967°W
Report Text: KGTB 251958Z AUTO 20007KT 7SM -RA FEW002 BKN035 OVC046 12/09 A2954 RMK AO2 SLP005 P0006 T01220094
Loading
Personal Weather Stations






























Interactive Weather Map
Tropical Storm Tracking
New forecast layout! Learn more

10-Day Weather Forecast

Advertisements
Track Severe Weather on mobile